Terminal Aerodrome Forecast
Issued by NWS

Home | Current Version | Previous Version | Text Only | Print | Product List | Glossary On
Versions: 1 2 3 4 5 6 7 8 9 10 11 12 13
000
FTUS45 KFGZ 042337
TAFPRC
TAF
KPRC 042337Z 0500/0524 21012G18KT P6SM SCT070 SCT120
     FM050200 19007KT P6SM BKN050
     FM051830 20012G18KT P6SM SCT050=

USA.gov is the U.S. government's official web portal to all federal, state and local government web resources and services.